createdAt,value
2023-03-02T00:00:50.043Z,33.13
2023-03-02T00:04:55.929Z,36.40
2023-03-02T00:09:02.081Z,31.93
2023-03-02T00:13:07.674Z,32.97
2023-03-02T00:17:11.460Z,34.40
2023-03-02T00:21:12.232Z,34.30
2023-03-02T00:25:14.277Z,35.27
2023-03-02T00:29:15.092Z,32.67
2023-03-02T00:33:18.468Z,29.97
2023-03-02T00:37:19.434Z,31.43
2023-03-02T00:41:21.723Z,32.53
2023-03-02T00:45:22.291Z,31.40
2023-03-02T00:49:26.090Z,36.07
2023-03-02T00:53:26.528Z,34.80
2023-03-02T00:57:27.887Z,30.43
2023-03-02T01:01:29.920Z,33.43
2023-03-02T01:05:33.420Z,34.83
2023-03-02T01:09:34.764Z,32.00
2023-03-02T01:13:36.440Z,31.30
2023-03-02T01:17:38.180Z,35.93
2023-03-02T01:21:41.761Z,35.43
2023-03-02T01:25:42.158Z,34.03
2023-03-02T01:29:42.813Z,33.07
2023-03-02T01:33:43.443Z,31.53
2023-03-02T01:37:50.383Z,34.97
2023-03-02T01:41:52.493Z,33.20
2023-03-02T01:45:57.789Z,33.37
2023-03-02T01:50:30.344Z,31.27
2023-03-02T01:54:35.956Z,32.80
2023-03-02T01:58:40.835Z,31.07
2023-03-02T02:02:42.614Z,34.30
2023-03-02T02:06:50.120Z,32.67
2023-03-02T02:10:54.762Z,32.53
2023-03-02T02:15:01.067Z,33.07
2023-03-02T02:19:02.144Z,33.77
2023-03-02T02:23:20.183Z,36.63
2023-03-02T02:27:30.419Z,35.20
2023-03-02T02:31:39.061Z,36.97
2023-03-02T02:35:42.749Z,36.80
2023-03-02T02:39:50.110Z,40.03
2023-03-02T02:43:55.837Z,37.40
2023-03-02T02:47:59.100Z,40.17
2023-03-02T02:52:03.890Z,36.20
2023-03-02T02:56:10.268Z,35.47
2023-03-02T03:00:26.825Z,37.00
2023-03-02T03:04:33.106Z,36.80
2023-03-02T03:09:03.905Z,38.80
2023-03-02T03:13:15.843Z,37.47
2023-03-02T03:17:19.165Z,32.83
2023-03-02T03:21:25.806Z,40.20
2023-03-02T03:25:29.952Z,40.77
2023-03-02T03:29:33.642Z,41.90
2023-03-02T03:33:39.353Z,37.63
2023-03-02T03:37:41.976Z,34.23
2023-03-02T03:41:45.024Z,39.50
2023-03-02T03:45:48.807Z,35.37
2023-03-02T03:49:52.466Z,38.10
2023-03-02T03:54:03.144Z,37.47
2023-03-02T03:58:09.780Z,42.90
2023-03-02T04:02:12.522Z,37.67
2023-03-02T04:06:19.050Z,35.70
2023-03-02T04:10:22.536Z,39.67
2023-03-02T04:14:27.928Z,40.17
2023-03-02T04:18:31.867Z,40.07
2023-03-02T04:22:35.204Z,35.43
2023-03-02T04:26:38.871Z,36.17
2023-03-02T04:30:40.253Z,36.03
2023-03-02T04:34:44.296Z,40.53
2023-03-02T04:38:49.081Z,38.97
2023-03-02T04:42:50.750Z,40.53
2023-03-02T04:46:53.011Z,39.93
2023-03-02T04:50:53.758Z,38.60
2023-03-02T04:54:57.852Z,40.20
2023-03-02T04:58:59.636Z,38.47
2023-03-02T05:03:00.424Z,35.93
2023-03-02T05:07:02.840Z,35.83
2023-03-02T05:11:07.979Z,39.43
2023-03-02T05:15:12.731Z,47.60
2023-03-02T05:19:16.929Z,37.13
2023-03-02T05:23:25.304Z,35.47
2023-03-02T05:27:28.928Z,36.70
2023-03-02T05:31:35.348Z,39.13
2023-03-02T05:35:36.028Z,35.60
2023-03-02T05:39:39.658Z,38.37
2023-03-02T05:43:43.764Z,40.20
2023-03-02T05:47:46.788Z,41.40
2023-03-02T05:51:47.733Z,38.23
2023-03-02T05:55:51.741Z,36.90
2023-03-02T05:59:55.225Z,44.00
2023-03-02T06:03:55.765Z,43.53
2023-03-02T06:07:56.363Z,41.60
2023-03-02T06:11:56.626Z,37.83
2023-03-02T06:15:59.893Z,42.27
2023-03-02T06:20:00.451Z,44.97
2023-03-02T06:24:00.863Z,36.57
2023-03-02T06:28:01.867Z,42.67
2023-03-02T06:32:05.174Z,43.47
2023-03-02T06:36:06.334Z,42.87
2023-03-02T06:40:11.704Z,40.30
2023-03-02T06:44:12.397Z,44.40
2023-03-02T06:48:18.487Z,42.63
2023-03-02T06:52:19.298Z,47.07
2023-03-02T06:56:20.031Z,40.13
2023-03-02T07:00:28.420Z,41.93
2023-03-02T07:04:31.926Z,40.83
2023-03-02T07:08:32.471Z,40.83
2023-03-02T07:12:33.451Z,38.83
2023-03-02T07:16:33.967Z,43.03
2023-03-02T07:20:38.454Z,42.33
2023-03-02T07:24:38.787Z,45.20
2023-03-02T07:28:40.358Z,39.10
2023-03-02T07:32:42.985Z,49.57
2023-03-02T07:36:47.776Z,42.50
2023-03-02T07:40:48.549Z,41.57
2023-03-02T07:44:49.057Z,40.47
2023-03-02T07:48:49.718Z,41.77
2023-03-02T07:52:55.597Z,53.93
2023-03-02T07:56:56.075Z,45.23
2023-03-02T08:00:57.864Z,43.00
2023-03-02T08:05:00.082Z,46.93
2023-03-02T08:09:09.108Z,41.40
2023-03-02T08:13:11.597Z,37.63
2023-03-02T08:17:14.628Z,35.30
2023-03-02T08:21:19.183Z,35.43
2023-03-02T08:25:23.021Z,35.90
2023-03-02T08:29:24.785Z,34.23
2023-03-02T08:33:25.178Z,36.83
2023-03-02T08:37:27.791Z,33.10
2023-03-02T08:41:35.357Z,33.57
2023-03-02T08:45:38.187Z,39.47
2023-03-02T08:49:39.834Z,34.73
2023-03-02T08:53:43.867Z,33.77
2023-03-02T08:57:47.879Z,34.53
2023-03-02T09:01:48.633Z,32.57
2023-03-02T09:05:49.534Z,32.43
2023-03-02T09:09:50.135Z,33.13
2023-03-02T09:13:56.952Z,34.63
2023-03-02T09:17:58.026Z,35.73
2023-03-02T09:21:58.714Z,32.47
2023-03-02T09:25:59.881Z,32.40
2023-03-02T09:30:03.362Z,35.87
2023-03-02T09:34:04.524Z,32.03
2023-03-02T09:38:05.053Z,32.23
2023-03-02T09:42:53.686Z,32.57
2023-03-02T09:47:04.434Z,29.70
2023-03-02T09:51:31.421Z,32.13
2023-03-02T09:55:38.188Z,32.93
2023-03-02T09:59:47.850Z,32.10
2023-03-02T10:04:20.765Z,32.50
2023-03-02T10:08:27.328Z,26.83
2023-03-02T10:12:56.791Z,27.50
2023-03-02T10:17:19.078Z,31.83
2023-03-02T10:21:33.019Z,28.47
2023-03-02T10:25:47.713Z,29.03
2023-03-02T10:30:01.800Z,30.93
2023-03-02T10:34:04.513Z,30.70
2023-03-02T10:38:19.495Z,28.60
2023-03-02T10:42:25.830Z,29.27
2023-03-02T10:46:26.607Z,29.33
2023-03-02T10:50:30.999Z,24.92
2023-03-02T10:54:41.470Z,26.08
2023-03-02T10:58:43.956Z,27.17
2023-03-02T11:02:53.676Z,26.10
2023-03-02T11:06:56.016Z,27.25
2023-03-02T11:11:04.947Z,30.75
2023-03-02T11:15:25.428Z,27.95
2023-03-02T11:19:37.709Z,25.17
2023-03-02T11:23:56.485Z,25.85
2023-03-02T11:28:10.274Z,26.77
2023-03-02T11:32:23.213Z,23.40
2023-03-02T11:36:38.621Z,25.38
2023-03-02T11:40:49.856Z,26.60
2023-03-02T11:44:56.664Z,29.08
2023-03-02T11:49:03.550Z,26.02
2023-03-02T11:53:11.243Z,22.45
2023-03-02T11:57:28.401Z,23.52
2023-03-02T12:01:40.984Z,26.85
2023-03-02T12:05:44.918Z,26.83
2023-03-02T12:09:48.254Z,24.50
2023-03-02T12:14:03.274Z,29.60
2023-03-02T12:18:33.030Z,21.13
2023-03-02T12:22:36.046Z,21.30
2023-03-02T12:26:40.920Z,25.65
2023-03-02T12:30:49.365Z,22.65
2023-03-02T12:34:59.837Z,23.23
2023-03-02T12:39:24.361Z,23.15
2023-03-02T12:43:37.247Z,22.80
2023-03-02T12:47:39.561Z,21.23
2023-03-02T12:51:57.330Z,20.55
2023-03-02T12:56:00.447Z,23.88
2023-03-02T13:00:05.034Z,17.25
2023-03-02T13:04:05.650Z,24.60
2023-03-02T13:08:18.801Z,20.65
2023-03-02T13:12:21.426Z,23.23
2023-03-02T13:16:26.766Z,19.42
2023-03-02T13:20:31.660Z,22.45
2023-03-02T13:24:52.419Z,19.77
2023-03-02T13:29:05.970Z,18.00
2023-03-02T13:33:23.452Z,25.63
2023-03-02T13:37:39.425Z,19.85
2023-03-02T13:41:42.935Z,21.70
2023-03-02T13:45:43.488Z,26.60
2023-03-02T13:49:45.754Z,22.05
2023-03-02T13:53:54.743Z,17.80
2023-03-02T13:57:59.308Z,19.90
2023-03-02T14:02:01.285Z,25.67
2023-03-02T14:06:03.168Z,20.90
2023-03-02T14:10:03.831Z,22.17
2023-03-02T14:14:10.615Z,20.67
2023-03-02T14:18:31.740Z,19.02
2023-03-02T14:22:35.729Z,22.17
2023-03-02T14:26:41.393Z,18.85
2023-03-02T14:30:45.259Z,24.98
2023-03-02T14:34:47.030Z,24.05
2023-03-02T14:38:48.583Z,20.25
2023-03-02T14:42:54.398Z,28.92
2023-03-02T14:46:58.773Z,22.75
2023-03-02T14:51:03.517Z,21.60
2023-03-02T14:55:09.152Z,29.20
2023-03-02T14:59:12.665Z,24.40
2023-03-02T15:03:19.527Z,20.25
2023-03-02T15:07:21.504Z,21.35
2023-03-02T15:11:22.356Z,25.38
2023-03-02T15:15:27.750Z,26.25
2023-03-02T15:19:31.138Z,24.88
2023-03-02T15:23:32.802Z,25.73
2023-03-02T15:27:33.631Z,30.77
2023-03-02T15:31:35.088Z,22.08
2023-03-02T15:35:44.645Z,23.92
2023-03-02T15:39:45.231Z,26.02
2023-03-02T15:43:48.560Z,25.67
2023-03-02T15:47:49.416Z,23.70
2023-03-02T15:51:54.555Z,30.38
2023-03-02T15:55:55.248Z,21.88
2023-03-02T15:59:58.615Z,30.85
2023-03-02T16:04:04.826Z,33.72
2023-03-02T16:08:10.958Z,24.92
2023-03-02T16:12:11.564Z,25.13
2023-03-02T16:16:15.410Z,27.27
2023-03-02T16:20:16.640Z,31.35
2023-03-02T16:24:20.262Z,25.80
2023-03-02T16:28:24.003Z,24.52
2023-03-02T16:32:27.293Z,28.15
2023-03-02T16:36:30.144Z,27.00
2023-03-02T16:40:34.052Z,30.70
2023-03-02T16:44:34.616Z,27.17
2023-03-02T16:48:36.072Z,29.67
2023-03-02T16:52:36.765Z,30.77
2023-03-02T16:56:41.439Z,31.37
2023-03-02T17:00:42.754Z,24.43
2023-03-02T17:04:43.257Z,33.33
2023-03-02T17:08:43.786Z,29.80
2023-03-02T17:12:47.174Z,37.80
2023-03-02T17:16:47.834Z,35.73
2023-03-02T17:20:48.448Z,35.07
2023-03-02T17:24:48.901Z,29.03
2023-03-02T17:28:52.552Z,28.13
2023-03-02T17:32:54.132Z,28.77
2023-03-02T17:36:54.446Z,29.70
2023-03-02T17:40:54.649Z,26.33
2023-03-02T17:44:57.765Z,30.57
2023-03-02T17:49:01.769Z,39.40
2023-03-02T17:53:03.154Z,50.50
2023-03-02T17:57:04.266Z,36.90
2023-03-02T18:01:08.818Z,39.23
2023-03-02T18:05:12.865Z,42.00
2023-03-02T18:09:13.556Z,40.43
2023-03-02T18:13:16.335Z,34.37
2023-03-02T18:17:20.891Z,43.23
2023-03-02T18:21:22.865Z,37.50
2023-03-02T18:25:23.524Z,33.33
2023-03-02T18:29:24.314Z,32.47
2023-03-02T18:33:27.724Z,37.80
2023-03-02T18:37:28.669Z,34.13
2023-03-02T18:41:30.398Z,32.70
2023-03-02T18:45:34.847Z,31.27
2023-03-02T18:49:38.536Z,28.97
2023-03-02T18:53:39.664Z,45.30
2023-03-02T18:57:40.831Z,35.20
2023-03-02T19:01:41.430Z,27.43
2023-03-02T19:05:45.915Z,33.83
2023-03-02T19:09:46.516Z,33.50
2023-03-02T19:13:46.883Z,38.77
2023-03-02T19:17:47.652Z,46.07
2023-03-02T19:21:51.027Z,39.43
2023-03-02T19:25:52.032Z,34.87
2023-03-02T19:29:52.540Z,35.63
2023-03-02T19:33:53.869Z,37.83
2023-03-02T19:37:57.461Z,31.50
2023-03-02T19:41:58.089Z,27.40
2023-03-02T19:45:58.830Z,32.67
2023-03-02T19:49:59.229Z,32.10
2023-03-02T19:54:04.212Z,35.07
2023-03-02T19:58:05.227Z,34.50
2023-03-02T20:02:05.881Z,33.50
2023-03-02T20:06:07.073Z,35.80
2023-03-02T20:10:14.872Z,38.03
2023-03-02T20:14:31.366Z,32.63
2023-03-02T20:18:35.221Z,39.53
2023-03-02T20:22:35.734Z,32.07
2023-03-02T20:26:38.946Z,31.27
2023-03-02T20:30:44.078Z,32.37
2023-03-02T20:34:46.569Z,29.33
2023-03-02T20:38:52.552Z,34.10
2023-03-02T20:42:56.613Z,32.27
2023-03-02T20:47:01.397Z,35.60
2023-03-02T20:51:03.324Z,36.07
2023-03-02T20:55:04.126Z,35.13
2023-03-02T20:59:08.520Z,33.93
2023-03-02T21:03:11.412Z,32.03
2023-03-02T21:07:16.688Z,32.40
2023-03-02T21:11:21.838Z,28.97
2023-03-02T21:15:30.564Z,37.90
2023-03-02T21:19:31.453Z,38.10
2023-03-02T21:23:32.676Z,49.67
2023-03-02T21:27:33.307Z,50.27
2023-03-02T21:31:36.992Z,45.40
2023-03-02T21:35:38.679Z,38.37
2023-03-02T21:39:39.844Z,42.53
2023-03-02T21:43:40.840Z,33.47
2023-03-02T21:47:46.178Z,35.23
2023-03-02T21:51:49.589Z,41.37
2023-03-02T21:55:53.775Z,43.40
2023-03-02T21:59:54.915Z,33.80
2023-03-02T22:03:58.754Z,33.33
2023-03-02T22:08:00.158Z,31.20
2023-03-02T22:12:00.922Z,30.97
2023-03-02T22:16:16.659Z,34.30
2023-03-02T22:20:23.106Z,28.47
2023-03-02T22:24:28.965Z,34.97
2023-03-02T22:28:31.256Z,28.73
2023-03-02T22:32:38.277Z,29.40
2023-03-02T22:36:41.313Z,28.77
2023-03-02T22:40:43.079Z,29.67
2023-03-02T22:44:44.124Z,28.73
2023-03-02T22:48:47.675Z,33.00
2023-03-02T22:52:50.993Z,27.93
2023-03-02T22:56:57.086Z,30.90
2023-03-02T23:00:58.694Z,30.00
2023-03-02T23:04:59.347Z,30.53
2023-03-02T23:09:06.548Z,26.90
2023-03-02T23:13:07.613Z,27.87
2023-03-02T23:17:21.897Z,30.17
2023-03-02T23:21:28.425Z,30.47
2023-03-02T23:25:31.973Z,30.73
2023-03-02T23:29:32.842Z,26.20
2023-03-02T23:33:33.652Z,28.77
2023-03-02T23:37:34.205Z,29.33
2023-03-02T23:41:38.752Z,29.17
2023-03-02T23:45:41.934Z,32.23
2023-03-02T23:49:42.715Z,28.40
2023-03-02T23:53:43.610Z,28.53
2023-03-02T23:57:47.086Z,27.70
